»·PEaware :: N5939V KBFL-KSFO

N5939V :: KBFL-KSFO

FLIGHT INFORMATION

Flight Status: Arrived
Operator: Privately registered:
United States
More flights under this callsign
Pilot: Anonymous 30260 (30260)
Aircraft: SOCATA TBM-900
(TBM9)
More flights by this aircraft type
Origin: KBFL Meadows
United States
Destination: KSFO San Francisco Intl
United States
More flights between these airports :: More routes between these airports
Route: +MEADO4 AVE V107 PXN OSI
File this flight plan on PilotEdge
Remarks:
Altitude:
(Current/Filed)
16,000ft
Speed:
(Current/Filed)
288kts
Departed: 26-Sep-20 12:55 PM
Arrived: 26-Sep-20 01:50 PM
Distance/Time
Traveled:
207nm/0:54
Distance/Time
To Go:
Arrived

Flight Plot

Page will automatically refresh every two minutes.

Flight plan parsing failed; only flown route is shown


Map Options




Map Legend


Flown Route
Filed Route
Departure Airport
Arrival Airport
Navaid (VOR, NDB)
Fix

Horizontal Profiles

Position Reports

Time Latitude Longitude Heading Altitude Ground
Speed
26-Sep-20 12:43 35.428360 -119.045174 61 492ft 0kts
26-Sep-20 12:45 35.428360 -119.045174 61 492ft 0kts
26-Sep-20 12:46 35.428360 -119.045174 61 492ft 0kts
26-Sep-20 12:46 35.428360 -119.045174 61 492ft 0kts
26-Sep-20 12:47 35.428360 -119.045174 61 492ft 0kts
26-Sep-20 12:48 35.428360 -119.045174 61 492ft 0kts
26-Sep-20 12:49 35.428360 -119.045174 61 492ft 0kts
26-Sep-20 12:50 35.428360 -119.045174 61 492ft 0kts
26-Sep-20 12:51 35.428360 -119.045174 61 492ft 0kts
26-Sep-20 12:52 35.427491 -119.046224 167 484ft 12kts
26-Sep-20 12:53 35.425371 -119.045912 307 475ft 10kts
26-Sep-20 12:54 35.443575 -119.067242 310 1649ft 120kts
26-Sep-20 12:55 35.472831 -119.105766 313 3029ft 182kts
26-Sep-20 12:56 35.515876 -119.161637 313 3024ft 216kts
26-Sep-20 12:57 35.548088 -119.217064 280 4881ft 185kts
26-Sep-20 12:58 35.556112 -119.279693 281 6827ft 186kts
26-Sep-20 12:59 35.564553 -119.343541 281 8500ft 191kts
26-Sep-20 13:00 35.573536 -119.411498 282 10250ft 197kts
26-Sep-20 13:01 35.582881 -119.482455 283 11907ft 205kts
26-Sep-20 13:02 35.593752 -119.565243 282 12016ft 252kts
26-Sep-20 13:03 35.605522 -119.655791 281 12010ft 264kts
26-Sep-20 13:04 35.616989 -119.744528 282 12559ft 249kts
26-Sep-20 13:05 35.627246 -119.824233 282 14280ft 216kts
26-Sep-20 13:06 35.636572 -119.896795 282 15955ft 218kts
26-Sep-20 13:07 35.653827 -119.976387 308 16019ft 256kts
26-Sep-20 13:08 35.715344 -120.028946 329 16054ft 265kts
26-Sep-20 13:09 35.781698 -120.078073 329 16050ft 268kts
26-Sep-20 13:10 35.847004 -120.126436 329 16049ft 269kts
26-Sep-20 13:11 35.912820 -120.175268 329 16047ft 269kts
26-Sep-20 13:12 35.979079 -120.224526 329 16045ft 269kts
26-Sep-20 13:13 36.044464 -120.273232 329 16044ft 269kts
26-Sep-20 13:14 36.110333 -120.322393 329 16049ft 269kts
26-Sep-20 13:15 36.175305 -120.370980 329 16051ft 270kts
26-Sep-20 13:16 36.239854 -120.419375 330 16028ft 270kts
26-Sep-20 13:17 36.305475 -120.468615 330 16028ft 269kts
26-Sep-20 13:18 36.370099 -120.517227 330 16027ft 269kts
26-Sep-20 13:19 36.435022 -120.566162 330 16027ft 269kts
26-Sep-20 13:20 36.499958 -120.615210 330 16027ft 269kts
26-Sep-20 13:21 36.564797 -120.664284 329 16025ft 269kts
26-Sep-20 13:22 36.629126 -120.713064 329 16020ft 269kts
26-Sep-20 13:23 36.693205 -120.761753 329 16022ft 269kts
26-Sep-20 13:24 36.740747 -120.833478 302 16026ft 274kts
26-Sep-20 13:25 36.778730 -120.916238 302 16032ft 274kts
26-Sep-20 13:26 36.816943 -120.999562 302 15950ft 277kts
26-Sep-20 13:27 36.855071 -121.082941 301 15955ft 274kts
26-Sep-20 13:28 36.892779 -121.165603 301 15971ft 274kts
26-Sep-20 13:29 36.930466 -121.248455 301 15980ft 274kts
26-Sep-20 13:30 36.968181 -121.331556 301 15979ft 274kts
26-Sep-20 13:31 37.005860 -121.414779 300 15977ft 273kts
26-Sep-20 13:32 37.043714 -121.498601 300 15427ft 283kts
26-Sep-20 13:33 37.082983 -121.585805 300 14408ft 287kts
26-Sep-20 13:34 37.123124 -121.675174 299 12898ft 289kts
26-Sep-20 13:35 37.162336 -121.762695 299 11589ft 284kts
26-Sep-20 13:36 37.201016 -121.849273 299 10425ft 279kts
26-Sep-20 13:37 37.237851 -121.931975 299 9985ft 258kts
26-Sep-20 13:38 37.274405 -122.014190 299 8869ft 274kts
26-Sep-20 13:39 37.311514 -122.097946 299 7479ft 267kts
26-Sep-20 13:40 37.348102 -122.181207 300 6225ft 257kts
26-Sep-20 13:41 37.380017 -122.253034 311 5937ft 204kts
26-Sep-20 13:42 37.430758 -122.248895 43 4408ft 227kts
26-Sep-20 13:43 37.476178 -122.196098 5 3971ft 219kts
26-Sep-20 13:44 37.537483 -122.199113 354 3041ft 202kts
26-Sep-20 13:45 37.567102 -122.247873 289 1663ft 209kts
26-Sep-20 13:46 37.592598 -122.307009 298 929ft 138kts
26-Sep-20 13:47 37.605532 -122.338114 296 401ft 82kts
26-Sep-20 13:48 37.616399 -122.363951 297 41ft 80kts
26-Sep-20 13:49 37.623918 -122.381195 337 22ft 19kts

Navigation Log

Ident Type
Flight plan parsing failed, navigation log unavailable